Time;durP1;ratioP1;P1;durP2;ratioP2;P2;SDS_P1;SDS_P2;PMS_P1;PMS_P2;Temp;Humidity;BMP_temperature;BMP_pressure;BME280_temperature;BME280_humidity;BME280_pressure;Samples;Min_cycle;Max_cycle;Signal;HPM_P1;HPM_P2
2022/05/15 00:00:37;;;;;;;10.77;5.07;;;;;;;18.40;58.40;98785.25;5011857;28;20071;-49
2022/05/15 00:00:37;;;;;;;22.83;8.18;;;;;;;18.42;58.41;98782.38;5011701;28;20041;-49
2022/05/15 00:03:04;;;;;;;24.63;7.15;;;;;;;18.39;58.53;98781.00;5015825;28;20065;-49
2022/05/15 00:05:30;;;;;;;37.50;12.20;;;;;;;18.41;58.27;98778.09;5015704;28;20459;-49
2022/05/15 00:07:56;;;;;;;58.22;20.77;;;;;;;18.31;58.86;98781.44;5015633;28;20026;-49
2022/05/15 00:10:22;;;;;;;29.67;8.50;;;;;;;18.45;58.52;98780.00;5015613;28;20050;-49
2022/05/15 00:12:48;;;;;;;27.85;8.18;;;;;;;18.56;58.09;98780.91;5015602;28;20122;-49
2022/05/15 00:15:13;;;;;;;32.30;11.05;;;;;;;18.54;58.01;98775.84;5015546;28;20014;-49
2022/05/15 00:17:39;;;;;;;38.17;13.27;;;;;;;18.53;58.15;98778.75;5015482;28;20484;-49
2022/05/15 00:20:05;;;;;;;27.63;8.13;;;;;;;18.57;57.81;98777.19;5015398;28;20500;-49
2022/05/15 00:22:35;;;;;;;20.45;6.35;;;;;;;18.59;57.76;98777.75;4997817;28;20033;-48
2022/05/15 00:25:03;;;;;;;25.60;7.90;;;;;;;18.56;57.84;98779.06;5015266;28;20030;-49
2022/05/15 00:27:29;;;;;;;49.70;13.18;;;;;;;18.50;57.41;98776.59;5015267;28;20042;-49
2022/05/15 00:29:55;;;;;;;37.35;9.25;;;;;;;18.35;57.89;98785.19;5015263;28;20510;-49
2022/05/15 00:32:21;;;;;;;67.00;14.50;;;;;;;18.13;58.93;98782.56;4997551;28;20026;-51
2022/05/15 00:34:47;;;;;;;29.02;7.40;;;;;;;18.11;58.82;98788.13;5015205;28;20040;-51
2022/05/15 00:37:13;;;;;;;29.00;7.78;;;;;;;18.12;58.77;98784.41;5015138;28;20116;-51
2022/05/15 00:39:38;;;;;;;14.20;4.28;;;;;;;18.13;58.85;98786.03;5015106;28;20109;-52
2022/05/15 00:42:11;;;;;;;15.70;3.83;;;;;;;18.08;58.78;98788.59;5015063;28;20026;-51
2022/05/15 00:44:38;;;;;;;12.35;4.82;;;;;;;18.01;58.64;98787.16;5014955;28;20050;-51
2022/05/15 00:47:04;;;;;;;16.10;4.40;;;;;;;17.86;59.04;98788.59;4997222;28;20110;-51
2022/05/15 00:49:32;;;;;;;15.32;4.18;;;;;;;17.71;59.33;98788.38;5014972;28;20076;-51
2022/05/15 00:52:01;;;;;;;8.40;3.75;;;;;;;17.55;60.24;98788.13;5014843;28;20434;-51
2022/05/15 00:54:34;;;;;;;8.57;3.92;;;;;;;17.49;60.65;98797.06;5014609;28;20570;-51
2022/05/15 00:57:07;;;;;;;14.52;4.10;;;;;;;17.54;60.69;98788.38;5014807;28;20125;-51
2022/05/15 00:59:40;;;;;;;8.85;4.25;;;;;;;17.59;60.25;98780.50;5014828;28;20029;-50
2022/05/15 01:02:10;;;;;;;8.95;3.65;;;;;;;17.60;60.35;98795.34;4997133;28;20418;-51
2022/05/15 01:04:36;;;;;;;15.63;4.53;;;;;;;17.55;60.43;98795.28;5014713;28;20080;-51
2022/05/15 01:07:05;;;;;;;8.50;3.85;;;;;;;17.40;60.78;98798.50;4996845;28;20122;-51
2022/05/15 01:09:31;;;;;;;10.35;3.67;;;;;;;17.36;60.92;98802.69;4996975;28;20085;-51
2022/05/15 01:12:00;;;;;;;10.07;3.45;;;;;;;17.34;61.01;98797.66;5014514;28;20509;-51
2022/05/15 01:14:26;;;;;;;9.70;4.05;;;;;;;17.30;60.89;98801.81;5013798;28;20026;-51
2022/05/15 01:16:51;;;;;;;11.88;4.00;;;;;;;17.17;61.17;98797.63;5014414;28;20377;-51
2022/05/15 01:19:32;;;;;;;8.05;3.80;;;;;;;17.07;61.83;98809.91;5014381;28;20487;-51
2022/05/15 01:21:58;;;;;;;14.63;3.70;;;;;;;17.00;61.77;98804.75;5014274;28;20125;-51
2022/05/15 01:24:25;;;;;;;9.82;4.22;;;;;;;16.92;61.91;98800.66;4996692;28;20403;-51
2022/05/15 01:26:51;;;;;;;11.82;4.07;;;;;;;16.86;62.27;98803.44;5014162;28;20050;-51
2022/05/15 01:29:18;;;;;;;10.65;3.85;;;;;;;16.85;62.52;98804.50;4996604;28;20017;-52
2022/05/15 01:31:48;;;;;;;10.25;3.65;;;;;;;16.96;62.35;98800.97;5012753;28;20076;-51
2022/05/15 01:34:14;;;;;;;10.55;3.83;;;;;;;16.97;62.13;98806.03;4996631;28;20451;-51
2022/05/15 01:36:40;;;;;;;15.23;4.13;;;;;;;17.02;62.16;98801.88;4996442;28;20053;-50
2022/05/15 01:39:07;;;;;;;8.30;4.05;;;;;;;17.01;62.05;98801.06;4996613;28;20022;-51
2022/05/15 01:41:33;;;;;;;9.52;3.40;;;;;;;17.01;61.87;98803.72;5013934;28;20065;-51
2022/05/15 01:43:58;;;;;;;8.75;3.80;;;;;;;16.92;61.91;98802.50;5013937;28;20515;-51
2022/05/15 01:46:26;;;;;;;8.68;4.00;;;;;;;16.80;62.22;98804.38;5013817;28;20032;-51
2022/05/15 01:48:53;;;;;;;11.02;3.75;;;;;;;16.74;62.07;98796.34;5013820;28;20084;-51
2022/05/15 01:51:20;;;;;;;7.72;3.72;;;;;;;16.65;62.55;98791.66;5013793;28;20233;-51
2022/05/15 01:53:46;;;;;;;16.35;4.50;;;;;;;16.47;63.14;98801.38;5013489;28;20029;-51
2022/05/15 01:56:12;;;;;;;8.25;3.60;;;;;;;16.41;63.61;98801.53;5013744;28;20037;-51
2022/05/15 01:58:39;;;;;;;7.25;3.60;;;;;;;16.33;63.54;98800.06;5013624;28;20053;-51
2022/05/15 02:01:05;;;;;;;7.00;3.47;;;;;;;16.29;63.77;98799.72;4995966;28;20501;-51
2022/05/15 02:03:31;;;;;;;9.07;3.90;;;;;;;16.35;63.84;98795.31;4995988;28;20064;-51
2022/05/15 02:05:56;;;;;;;9.35;3.63;;;;;;;16.44;63.57;98796.56;4995759;28;20049;-51
2022/05/15 02:08:22;;;;;;;7.78;3.58;;;;;;;16.48;63.36;98795.06;5013469;28;20022;-50
2022/05/15 02:10:49;;;;;;;8.07;3.40;;;;;;;16.45;63.40;98792.88;4995775;28;20025;-51
2022/05/15 02:13:15;;;;;;;5.88;3.97;;;;;;;16.38;63.27;98790.38;5013395;28;20018;-51
2022/05/15 02:15:42;;;;;;;7.78;3.97;;;;;;;16.26;63.98;98786.13;5013314;28;20033;-51
2022/05/15 02:18:08;;;;;;;6.95;4.22;;;;;;;16.17;64.14;98791.78;5013373;28;20109;-51
2022/05/15 02:20:34;;;;;;;13.43;5.10;;;;;;;16.20;64.54;98787.91;4995590;28;20080;-51
2022/05/15 02:23:00;;;;;;;8.65;4.05;;;;;;;16.25;64.51;98787.19;4995555;28;20033;-51
2022/05/15 02:25:27;;;;;;;15.63;4.13;;;;;;;16.32;64.41;98790.53;5012160;28;20018;-50
2022/05/15 02:27:54;;;;;;;9.70;4.38;;;;;;;16.30;64.63;98792.59;5013043;28;20030;-51
2022/05/15 02:30:20;;;;;;;9.80;4.38;;;;;;;16.33;64.39;98789.47;5013030;28;20037;-51
2022/05/15 02:32:47;;;;;;;12.95;4.07;;;;;;;16.23;64.37;98795.34;5012979;28;20053;-51
2022/05/15 02:35:13;;;;;;;8.73;4.10;;;;;;;16.17;64.60;98793.66;5012930;28;20083;-51
2022/05/15 02:37:41;;;;;;;5.97;4.10;;;;;;;16.16;64.58;98795.50;4995310;28;20022;-51
2022/05/15 02:40:08;;;;;;;8.75;3.83;;;;;;;16.10;64.70;98793.00;5012767;28;20569;-51
2022/05/15 02:42:34;;;;;;;13.77;4.28;;;;;;;16.01;65.01;98789.88;4995173;28;20456;-51
2022/05/15 02:45:00;;;;;;;9.23;4.63;;;;;;;15.92;65.03;98789.44;5012835;28;20025;-50
2022/05/15 02:47:26;;;;;;;9.73;3.97;;;;;;;15.78;65.42;98790.72;5012735;28;20026;-51
2022/05/15 02:52:35;;;;;;;6.30;4.35;;;;;;;15.78;65.37;98791.53;5012797;28;20121;-51
2022/05/15 02:55:02;;;;;;;7.90;3.80;;;;;;;15.69;65.94;98794.72;5012386;28;20120;-50
2022/05/15 02:57:28;;;;;;;8.55;3.70;;;;;;;15.60;66.28;98794.25;5012645;28;20030;-50
2022/05/15 02:59:53;;;;;;;9.85;4.15;;;;;;;15.64;66.12;98784.84;5012579;28;20064;-51
2022/05/15 03:02:19;;;;;;;12.05;4.07;;;;;;;15.64;66.04;98790.13;4994783;28;20041;-50
2022/05/15 03:04:47;;;;;;;6.78;3.72;;;;;;;15.65;65.86;98789.06;4994756;28;20017;-51
2022/05/15 03:07:13;;;;;;;6.22;3.70;;;;;;;15.61;65.57;98798.50;5012389;28;20399;-51
2022/05/15 03:09:39;;;;;;;12.20;3.65;;;;;;;15.52;65.64;98790.13;5012447;28;20117;-51
2022/05/15 03:12:05;;;;;;;6.25;3.30;;;;;;;15.43;65.96;98785.41;4994673;28;20176;-51
2022/05/15 03:14:31;;;;;;;10.75;3.90;;;;;;;15.36;66.13;98782.88;4994624;28;20076;-51
2022/05/15 03:16:57;;;;;;;9.10;3.80;;;;;;;15.31;66.21;98782.72;5012330;28;20017;-51
2022/05/15 03:19:22;;;;;;;6.72;3.50;;;;;;;15.36;66.50;98773.09;4994683;28;20030;-51
2022/05/15 03:21:48;;;;;;;9.15;4.10;;;;;;;15.50;66.46;98780.81;5012368;28;20026;-51
2022/05/15 03:24:14;;;;;;;4.97;3.53;;;;;;;15.62;66.11;98778.97;4994602;28;20018;-51
2022/05/15 03:26:43;;;;;;;7.25;4.20;;;;;;;15.60;65.84;98780.25;4994397;28;20030;-51
2022/05/15 03:29:10;;;;;;;10.75;4.90;;;;;;;15.55;66.01;98783.56;4994559;28;20057;-51
2022/05/15 03:31:38;;;;;;;11.55;4.40;;;;;;;15.42;66.36;98784.59;4994729;28;20030;-51
2022/05/15 03:34:07;;;;;;;9.05;4.25;;;;;;;15.41;66.41;98780.31;5012147;28;20022;-51
2022/05/15 03:36:33;;;;;;;6.78;4.00;;;;;;;15.44;66.31;98781.72;4994111;28;20561;-51
2022/05/15 03:38:59;;;;;;;6.95;4.82;;;;;;;15.40;66.64;98770.00;4994345;28;20022;-51
2022/05/15 03:41:27;;;;;;;8.57;4.22;;;;;;;15.46;66.96;98766.44;4978318;28;20026;-50
2022/05/15 03:43:53;;;;;;;9.07;4.45;;;;;;;15.40;67.09;98778.72;5012052;28;20026;-51
2022/05/15 03:46:19;;;;;;;8.18;4.10;;;;;;;15.37;67.13;98777.34;5011922;28;20072;-50
2022/05/15 03:48:44;;;;;;;9.23;4.10;;;;;;;15.37;66.88;98774.72;5011950;28;20411;-51
2022/05/15 03:51:10;;;;;;;8.05;4.63;;;;;;;15.32;66.48;98779.06;4994249;28;20065;-51
2022/05/15 03:53:36;;;;;;;8.73;4.22;;;;;;;15.25;66.71;98779.19;5011986;28;20021;-51
2022/05/15 03:56:04;;;;;;;11.00;4.45;;;;;;;15.10;67.04;98784.09;4973729;28;20564;-51
2022/05/15 03:58:33;;;;;;;6.30;4.22;;;;;;;14.93;67.47;98782.13;4971586;28;20459;-50
2022/05/15 04:00:59;;;;;;;9.60;4.32;;;;;;;14.91;67.65;98780.72;4971587;28;20413;-51
2022/05/15 04:03:25;;;;;;;7.15;4.65;;;;;;;14.91;67.76;98786.81;4971538;28;20027;-50
2022/05/15 04:05:50;;;;;;;8.05;4.30;;;;;;;14.90;67.76;98784.41;4971478;28;20039;-51
2022/05/15 04:08:16;;;;;;;10.50;4.75;;;;;;;14.75;68.08;98793.53;4971510;28;20034;-50
2022/05/15 04:10:42;;;;;;;8.77;4.10;;;;;;;14.63;68.46;98786.59;4972762;28;20045;-50
2022/05/15 04:13:08;;;;;;;5.85;3.78;;;;;;;14.60;69.14;98781.78;4971504;28;20030;-51
2022/05/15 04:15:34;;;;;;;6.20;4.25;;;;;;;14.69;68.78;98783.06;4971414;28;20571;-51
2022/05/15 04:18:00;;;;;;;5.47;4.25;;;;;;;14.82;68.74;98787.38;4972757;28;20046;-51
2022/05/15 04:20:28;;;;;;;6.20;4.35;;;;;;;14.88;68.53;98792.53;4971370;28;20515;-51
2022/05/15 04:22:54;;;;;;;6.63;3.83;;;;;;;14.88;68.27;98781.19;4972676;28;20489;-51
2022/05/15 04:25:21;;;;;;;6.63;4.20;;;;;;;14.93;68.20;98782.13;4971334;28;20117;-51
2022/05/15 04:27:47;;;;;;;6.20;4.50;;;;;;;14.89;67.78;98786.25;4971261;28;20033;-51
2022/05/15 04:30:18;;;;;;;7.25;4.10;;;;;;;14.84;68.53;98786.09;4972579;28;20110;-50
2022/05/15 04:32:44;;;;;;;7.60;4.20;;;;;;;14.91;68.36;98784.19;4972632;28;20062;-51
2022/05/15 04:35:11;;;;;;;6.65;3.80;;;;;;;15.01;68.08;98783.63;4971220;28;20034;-51
2022/05/15 04:37:40;;;;;;;9.00;4.18;;;;;;;15.17;67.64;98776.84;4971238;28;20031;-51
2022/05/15 04:40:08;;;;;;;7.05;4.47;;;;;;;15.56;66.45;98777.25;4971176;28;20030;-51
2022/05/15 04:42:34;;;;;;;8.05;3.95;;;;;;;16.11;65.26;98771.56;4972531;28;20375;-51
2022/05/15 04:45:00;;;;;;;10.40;4.03;;;;;;;16.55;63.53;98768.41;4971251;28;20038;-51
2022/05/15 04:47:26;;;;;;;6.15;4.53;;;;;;;16.96;61.96;98764.69;4972425;28;20054;-51
2022/05/15 04:49:52;;;;;;;5.90;3.85;;;;;;;17.30;61.20;98771.81;4975788;28;20022;-51
2022/05/15 04:52:17;;;;;;;6.55;3.50;;;;;;;17.73;59.93;98762.38;4975958;28;20599;-50
2022/05/15 04:54:44;;;;;;;6.00;3.60;;;;;;;18.03;58.85;98764.66;4988836;28;20067;-51
2022/05/15 04:57:09;;;;;;;7.03;3.47;;;;;;;18.25;58.12;98758.50;5014853;28;20030;-51
2022/05/15 04:59:35;;;;;;;6.35;3.92;;;;;;;18.62;57.19;98749.88;4997201;28;20040;-51
2022/05/15 05:02:03;;;;;;;7.90;3.33;;;;;;;19.14;56.03;98757.28;4997120;28;20400;-51
2022/05/15 05:04:29;;;;;;;9.38;3.70;;;;;;;19.50;55.17;98744.22;5014678;28;20033;-51
2022/05/15 05:06:54;;;;;;;6.68;3.85;;;;;;;19.75;54.27;98759.56;5014608;28;20018;-51
2022/05/15 05:09:21;;;;;;;7.00;3.95;;;;;;;19.54;54.16;98754.09;5014556;28;20111;-51
2022/05/15 05:11:46;;;;;;;6.35;3.17;;;;;;;19.71;54.28;98758.47;4996900;28;20022;-51
2022/05/15 05:14:12;;;;;;;6.20;3.80;;;;;;;20.39;52.73;98755.03;5014586;28;20029;-51
2022/05/15 05:16:38;;;;;;;9.73;3.38;;;;;;;21.37;50.37;98755.88;5014426;28;20484;-51
2022/05/15 05:19:04;;;;;;;4.45;3.53;;;;;;;22.44;47.59;98754.78;4996763;28;20511;-51
2022/05/15 05:21:30;;;;;;;6.30;3.85;;;;;;;22.86;46.19;98748.88;4996739;28;20049;-51
2022/05/15 05:23:55;;;;;;;5.20;3.58;;;;;;;23.31;44.90;98744.22;4996717;28;20034;-51
2022/05/15 05:26:21;;;;;;;7.03;3.67;;;;;;;23.73;43.74;98745.41;5014178;28;20108;-51
2022/05/15 05:28:47;;;;;;;8.68;3.70;;;;;;;24.09;43.01;98749.59;5014263;28;20034;-52
2022/05/15 05:31:13;;;;;;;7.30;4.13;;;;;;;24.69;42.03;98751.75;5014221;28;20562;-49
2022/05/15 05:33:39;;;;;;;8.32;3.92;;;;;;;25.23;41.35;98760.28;5014155;28;20488;-49
2022/05/15 05:36:06;;;;;;;7.38;4.05;;;;;;;25.97;39.82;98760.28;4996448;28;20119;-50
2022/05/15 05:38:32;;;;;;;6.65;3.63;;;;;;;26.71;38.75;98753.88;5014050;28;20026;-50
2022/05/15 05:40:58;;;;;;;7.95;3.58;;;;;;;27.44;37.44;98756.38;5013964;28;20117;-49
2022/05/15 05:43:24;;;;;;;8.98;3.53;;;;;;;27.89;36.22;98748.97;4996319;28;20120;-49
2022/05/15 05:45:49;;;;;;;3.78;3.05;;;;;;;27.87;36.02;98753.09;4996273;28;20022;-49
2022/05/15 05:48:15;;;;;;;5.43;3.38;;;;;;;27.65;36.16;98754.75;5013772;28;20030;-50
2022/05/15 05:50:41;;;;;;;4.82;3.53;;;;;;;27.87;36.30;98755.81;4996241;28;20104;-49
2022/05/15 05:53:07;;;;;;;5.47;3.92;;;;;;;28.52;35.17;98756.09;4996221;28;20048;-49
2022/05/15 05:55:33;;;;;;;6.97;3.30;;;;;;;28.59;35.06;98759.09;4995860;28;20056;-50
2022/05/15 05:57:59;;;;;;;5.88;3.50;;;;;;;28.96;34.35;98756.84;5013723;28;20030;-50
2022/05/15 06:00:28;;;;;;;6.00;3.45;;;;;;;29.31;33.68;98754.88;4995724;28;20053;-50
2022/05/15 06:04:39;;;;;;;8.60;3.47;;;;;;;29.55;33.33;98753.53;5013614;28;20459;-50
2022/05/15 06:05:40;;;;;;;7.30;3.35;;;;;;;30.05;32.88;98752.84;5013473;28;20491;-50
2022/05/15 06:08:06;;;;;;;6.50;3.58;;;;;;;30.78;31.59;98751.66;4995851;28;20116;-49
2022/05/15 06:10:32;;;;;;;6.93;3.88;;;;;;;31.17;31.37;98747.63;4995813;28;20121;-50
2022/05/15 06:12:58;;;;;;;6.80;3.58;;;;;;;31.89;30.34;98746.44;4979649;28;20022;-50
2022/05/15 06:15:23;;;;;;;4.65;3.35;;;;;;;32.29;29.47;98732.16;5013315;28;20026;-48
2022/05/15 06:17:49;;;;;;;6.03;3.75;;;;;;;32.69;28.58;98731.38;4995740;28;20061;-49
2022/05/15 06:20:15;;;;;;;7.40;3.35;;;;;;;33.06;28.23;98736.59;4995581;28;20399;-50
2022/05/15 06:22:41;;;;;;;7.45;3.47;;;;;;;33.39;27.62;98736.31;4995564;28;20033;-49
2022/05/15 06:25:07;;;;;;;6.63;3.85;;;;;;;33.58;27.58;98739.09;4995575;28;20044;-50
2022/05/15 06:27:33;;;;;;;6.25;3.60;;;;;;;33.89;27.15;98740.25;4995495;28;20495;-50
2022/05/15 06:29:58;;;;;;;5.45;3.97;;;;;;;34.40;26.67;98736.66;4995481;28;20037;-50
2022/05/15 06:32:25;;;;;;;7.25;3.25;;;;;;;34.99;26.08;98737.41;4995360;28;20065;-50
2022/05/15 06:34:51;;;;;;;5.82;3.80;;;;;;;35.27;25.79;98739.88;4995414;28;20030;-48
2022/05/15 06:37:17;;;;;;;5.53;3.40;;;;;;;35.77;25.62;98742.66;4995356;28;20088;-50
2022/05/15 06:39:43;;;;;;;7.05;3.47;;;;;;;36.03;24.87;98730.16;4995294;28;20029;-50
2022/05/15 06:42:09;;;;;;;5.53;3.13;;;;;;;36.54;24.63;98735.09;4995177;28;20084;-50
2022/05/15 06:44:34;;;;;;;6.97;3.22;;;;;;;36.91;24.39;98737.88;4979190;28;20516;-51
2022/05/15 06:47:00;;;;;;;4.20;3.10;;;;;;;37.53;23.86;98734.50;4995038;28;20029;-50
2022/05/15 06:49:26;;;;;;;7.57;3.78;;;;;;;37.75;23.26;98735.47;5012764;28;20061;-50
2022/05/15 06:51:51;;;;;;;4.07;3.33;;;;;;;37.67;23.59;98731.13;5012909;28;20021;-48
2022/05/15 06:54:17;;;;;;;7.80;3.50;;;;;;;37.58;23.34;98725.97;4994695;28;20049;-50
2022/05/15 06:59:27;;;;;;;3.75;3.33;;;;;;;37.53;23.13;98720.81;5012707;28;20049;-50
2022/05/15 07:01:53;;;;;;;4.40;3.70;;;;;;;37.70;23.24;98724.09;4994844;28;20065;-50
2022/05/15 07:04:18;;;;;;;5.32;3.78;;;;;;;37.68;23.09;98726.44;4994860;28;20033;-50
2022/05/15 07:06:44;;;;;;;5.55;3.45;;;;;;;37.44;23.31;98717.63;5012428;28;20029;-50
2022/05/15 07:09:10;;;;;;;6.22;3.90;;;;;;;37.22;23.60;98713.16;5012471;28;20058;-50
2022/05/15 07:11:36;;;;;;;5.85;3.53;;;;;;;37.42;23.83;98721.91;5011848;28;20549;-50
2022/05/15 07:14:01;;;;;;;7.72;3.78;;;;;;;37.15;23.62;98716.63;5012394;28;20100;-50
2022/05/15 07:16:27;;;;;;;6.00;3.70;;;;;;;36.95;23.93;98716.03;4994593;28;20034;-49
2022/05/15 07:18:53;;;;;;;6.63;3.92;;;;;;;36.79;24.12;98721.72;5012339;28;20014;-50
2022/05/15 07:21:18;;;;;;;9.27;3.65;;;;;;;36.68;24.32;98721.59;5012234;28;20028;-50
2022/05/15 07:23:44;;;;;;;5.43;4.03;;;;;;;36.40;24.56;98719.31;4994575;28;20022;-50
2022/05/15 07:26:10;;;;;;;6.25;3.70;;;;;;;35.87;25.12;98719.38;5012149;28;20022;-50
2022/05/15 07:28:36;;;;;;;7.20;4.15;;;;;;;35.48;25.68;98725.03;4994498;28;20026;-50
2022/05/15 07:31:02;;;;;;;7.53;3.53;;;;;;;35.24;25.47;98723.47;5012155;28;20456;-51
2022/05/15 07:33:28;;;;;;;8.00;3.20;;;;;;;34.78;25.56;98714.06;4994535;28;20022;-49
2022/05/15 07:35:57;;;;;;;6.25;3.92;;;;;;;34.50;26.69;98708.84;4994501;28;20120;-50
2022/05/15 07:38:23;;;;;;;6.15;3.25;;;;;;;34.51;26.35;98709.63;4994457;28;20495;-50
2022/05/15 07:40:49;;;;;;;7.00;3.60;;;;;;;34.83;25.98;98709.47;4994419;28;20036;-50
2022/05/15 07:43:15;;;;;;;10.77;4.47;;;;;;;35.10;25.51;98718.53;5012044;28;20076;-50
2022/05/15 07:45:41;;;;;;;5.07;3.70;;;;;;;35.20;25.18;98705.09;5012037;28;20436;-50
2022/05/15 07:48:08;;;;;;;7.97;3.85;;;;;;;35.29;25.12;98704.84;5011895;28;20022;-50
2022/05/15 07:50:35;;;;;;;7.75;4.00;;;;;;;35.43;25.60;98698.81;4994342;28;20037;-50
2022/05/15 07:53:01;;;;;;;9.88;3.90;;;;;;;35.18;25.31;98696.50;4994270;28;20034;-51
2022/05/15 07:55:28;;;;;;;7.28;3.70;;;;;;;34.19;26.53;98696.16;4977874;28;20129;-49
2022/05/15 07:57:53;;;;;;;6.13;3.78;;;;;;;33.90;26.91;98703.69;5011892;28;20026;-51
2022/05/15 08:00:19;;;;;;;5.68;3.58;;;;;;;33.98;27.07;98702.69;4994137;28;20115;-50
2022/05/15 08:02:46;;;;;;;11.25;4.15;;;;;;;34.25;27.08;98704.81;4994211;28;20053;-50
2022/05/15 08:08:05;;;;;;;6.57;3.55;;;;;;;36.10;24.89;98702.91;5011798;28;20033;-50
2022/05/15 08:10:34;;;;;;;5.45;3.33;;;;;;;36.50;23.34;98701.44;5011788;28;20511;-50
2022/05/15 08:13:00;;;;;;;9.45;3.25;;;;;;;36.93;23.26;98707.41;4994045;28;20087;-50
2022/05/15 08:15:27;;;;;;;5.53;3.20;;;;;;;37.64;22.81;98706.44;4994126;28;20037;-51
2022/05/15 08:17:53;;;;;;;11.73;4.03;;;;;;;38.07;21.45;98709.44;5011739;28;20033;-50
2022/05/15 08:25:49;;;;;;;6.40;3.40;;;;;;;38.08;22.13;98698.09;5015518;28;20092;-49
2022/05/15 08:28:16;;;;;;;7.68;3.00;;;;;;;37.85;21.40;98708.50;5015353;28;20487;-51
2022/05/15 08:30:42;;;;;;;4.00;2.70;;;;;;;38.28;21.37;98701.31;5015394;28;20399;-50
2022/05/15 08:33:11;;;;;;;5.20;2.83;;;;;;;38.16;21.33;98710.66;4997963;28;20026;-50
2022/05/15 08:35:37;;;;;;;4.90;2.40;;;;;;;38.38;20.85;98704.50;5015245;28;20067;-50
2022/05/15 08:38:03;;;;;;;4.38;2.83;;;;;;;38.50;20.67;98709.63;4997615;28;20033;-50
2022/05/15 08:40:40;;;;;;;6.25;3.00;;;;;;;38.24;21.01;98708.75;4997614;28;20025;-50
2022/05/15 08:43:10;;;;;;;5.05;3.00;;;;;;;38.16;20.78;98709.88;5015285;28;20029;-50
2022/05/15 08:45:42;;;;;;;6.35;3.20;;;;;;;37.75;21.34;98712.75;5015192;28;20029;-50
2022/05/15 08:48:12;;;;;;;9.48;3.00;;;;;;;37.16;21.60;98705.28;5015079;28;20030;-50
2022/05/15 08:50:48;;;;;;;4.57;3.00;;;;;;;36.78;22.58;98703.72;4997397;28;20026;-50
2022/05/15 08:53:35;;;;;;;5.13;3.10;;;;;;;36.17;22.83;98712.00;5014920;28;20041;-50
2022/05/15 08:56:07;;;;;;;6.82;3.88;;;;;;;35.38;24.37;98704.59;4997081;28;20439;-50
2022/05/15 08:58:52;;;;;;;4.80;3.15;;;;;;;35.37;23.90;98709.25;5014913;28;20513;-50
2022/05/15 09:01:24;;;;;;;9.30;3.85;;;;;;;35.58;24.37;98700.63;5014864;28;20073;-50
2022/05/15 09:03:52;;;;;;;7.80;3.55;;;;;;;36.08;24.09;98711.50;5014822;28;20112;-50
2022/05/15 09:06:43;;;;;;;7.70;3.40;;;;;;;36.98;23.60;98699.63;5014644;28;20032;-49
2022/05/15 09:09:16;;;;;;;6.28;3.50;;;;;;;37.67;22.82;98709.22;4997114;28;20026;-51
2022/05/15 09:11:45;;;;;;;10.83;3.80;;;;;;;38.08;22.21;98702.81;5014666;28;20036;-49
2022/05/15 09:14:32;;;;;;;4.95;3.58;;;;;;;38.24;21.76;98703.25;5014439;28;20478;-51
2022/05/15 09:17:21;;;;;;;5.93;3.40;;;;;;;37.68;22.47;98710.78;5014578;28;20033;-50
2022/05/15 09:19:56;;;;;;;7.28;3.85;;;;;;;36.67;23.37;98717.31;5000709;28;20038;-50
2022/05/15 09:22:26;;;;;;;7.88;3.92;;;;;;;35.93;24.44;98707.75;4996820;28;20132;-51
2022/05/15 09:24:52;;;;;;;5.00;4.03;;;;;;;36.05;24.13;98704.03;5014347;28;20057;-50
2022/05/15 09:27:27;;;;;;;6.47;3.28;;;;;;;35.63;24.77;98696.78;4996590;28;20022;-50
2022/05/15 09:30:01;;;;;;;13.98;4.38;;;;;;;35.82;24.87;98697.84;4996719;28;20164;-50
2022/05/15 09:32:28;;;;;;;6.38;4.30;;;;;;;35.57;25.32;98701.75;4996619;28;20030;-50
2022/05/15 09:35:00;;;;;;;8.50;4.07;;;;;;;35.72;25.34;98694.63;5013555;28;20022;-49
2022/05/15 09:43:30;;;;;;;7.90;3.65;;;;;;;37.29;23.53;98707.72;5014383;28;20044;-50
2022/05/15 09:43:33;;;;;;;8.32;4.47;;;;;;;37.50;23.15;98698.88;5013912;28;20069;-50
2022/05/15 09:46:11;;;;;;;8.52;3.83;;;;;;;37.47;23.24;98699.63;4996307;28;20026;-54
2022/05/15 09:48:41;;;;;;;5.05;3.22;;;;;;;37.76;22.81;98700.66;4996308;28;20026;-51
2022/05/15 09:51:13;;;;;;;5.40;3.33;;;;;;;38.39;22.28;98695.06;4996292;28;20475;-50
2022/05/15 09:53:44;;;;;;;5.57;3.45;;;;;;;38.82;21.30;98687.75;5013806;28;20036;-51
2022/05/15 09:56:19;;;;;;;7.65;3.47;;;;;;;38.55;21.25;98684.56;4995975;28;20046;-50
2022/05/15 09:59:04;;;;;;;6.28;3.65;;;;;;;38.15;21.88;98681.69;5013712;28;20049;-51
2022/05/15 10:01:33;;;;;;;7.60;3.13;;;;;;;37.68;22.17;98693.56;5006296;28;20585;-51
2022/05/15 10:04:00;;;;;;;6.78;3.45;;;;;;;37.41;23.43;98699.22;5013571;28;20026;-50
2022/05/15 10:06:33;;;;;;;6.40;3.60;;;;;;;37.42;22.98;98695.31;5013478;28;20045;-50
2022/05/15 10:09:04;;;;;;;7.43;3.80;;;;;;;37.20;23.49;98693.59;5013603;28;20479;-51
2022/05/15 10:11:33;;;;;;;5.90;3.47;;;;;;;37.50;22.85;98696.94;4995800;28;20076;-50
2022/05/15 10:14:01;;;;;;;5.88;3.70;;;;;;;37.63;22.88;98691.16;5013415;28;20488;-51
2022/05/15 10:16:31;;;;;;;8.88;4.25;;;;;;;37.43;23.26;98690.63;5013369;28;20022;-50
2022/05/15 10:19:02;;;;;;;7.53;4.07;;;;;;;37.02;23.36;98694.19;4995741;28;20049;-50
2022/05/15 10:21:37;;;;;;;6.85;4.07;;;;;;;36.13;23.89;98693.97;5013416;28;20022;-51
2022/05/15 10:24:08;;;;;;;15.82;4.00;;;;;;;35.20;25.63;98680.53;5013342;28;20026;-49
2022/05/15 10:27:06;;;;;;;10.43;4.20;;;;;;;34.60;26.69;98686.44;5013168;28;20037;-50
2022/05/15 10:29:55;;;;;;;8.98;4.38;;;;;;;34.53;26.25;98699.16;5013523;28;20030;-50
2022/05/15 10:32:32;;;;;;;13.75;4.60;;;;;;;34.22;27.25;98684.53;4995784;28;20026;-50
2022/05/15 10:34:58;;;;;;;5.00;3.97;;;;;;;33.89;27.34;98688.50;5013117;28;20037;-50
2022/05/15 10:37:58;;;;;;;6.90;4.40;;;;;;;33.66;28.22;98672.03;4995373;28;20022;-49
2022/05/15 10:40:46;;;;;;;6.97;4.63;;;;;;;33.45;28.39;98685.16;5012993;28;20120;-50
2022/05/15 10:43:36;;;;;;;5.05;4.07;;;;;;;33.58;27.94;98681.94;4995284;28;20022;-50
2022/05/15 10:46:25;;;;;;;10.32;4.88;;;;;;;34.15;27.59;98673.53;5012044;28;20100;-50
2022/05/15 10:48:53;;;;;;;7.65;4.97;;;;;;;34.45;27.08;98681.91;4995168;28;20128;-50
2022/05/15 10:51:46;;;;;;;6.53;3.80;;;;;;;34.93;26.64;98673.41;5012802;28;20030;-49
2022/05/15 10:57:27;;;;;;;5.10;3.25;;;;;;;34.81;26.17;98669.75;5012765;28;20439;-50
2022/05/15 11:00:12;;;;;;;9.45;4.07;;;;;;;34.15;27.06;98692.59;5012661;28;20026;-50
2022/05/15 11:02:55;;;;;;;12.98;4.03;;;;;;;33.84;27.10;98664.28;5012551;28;20084;-50
2022/05/15 11:05:27;;;;;;;7.25;3.90;;;;;;;33.31;27.50;98666.56;5012615;28;20029;-50
2022/05/15 11:08:17;;;;;;;7.75;4.20;;;;;;;33.57;27.65;98650.44;4994766;28;20034;-50
2022/05/15 11:10:52;;;;;;;5.07;3.60;;;;;;;33.80;26.97;98658.75;5012428;28;20037;-50
2022/05/15 11:13:28;;;;;;;10.55;4.10;;;;;;;33.42;27.37;98646.63;5012389;28;20033;-49
2022/05/15 11:15:57;;;;;;;10.52;4.07;;;;;;;33.00;28.10;98659.94;4994614;28;20030;-50
2022/05/15 11:18:37;;;;;;;8.68;4.10;;;;;;;32.93;28.31;98654.34;5012336;28;20104;-50
2022/05/15 11:21:13;;;;;;;6.22;3.65;;;;;;;33.22;28.09;98645.78;5012611;28;20025;-49
2022/05/15 11:23:45;;;;;;;7.95;3.40;;;;;;;33.61;27.32;98635.00;4994666;28;20029;-49
2022/05/15 11:26:22;;;;;;;8.32;4.00;;;;;;;33.67;27.11;98632.81;5012241;28;20438;-50
2022/05/15 11:28:53;;;;;;;5.70;3.35;;;;;;;33.72;27.77;98624.34;4994630;28;20092;-50
2022/05/15 11:31:28;;;;;;;7.93;3.83;;;;;;;34.35;27.46;98623.31;5012235;28;20026;-50
2022/05/15 11:34:02;;;;;;;8.20;3.83;;;;;;;34.94;26.75;98620.47;5012177;28;20050;-50
2022/05/15 11:36:35;;;;;;;6.72;3.72;;;;;;;35.54;25.76;98615.16;4994471;28;20033;-50
2022/05/15 11:39:12;;;;;;;8.73;4.22;;;;;;;36.31;24.61;98613.00;5012150;28;20101;-50
2022/05/15 11:41:38;;;;;;;18.17;4.35;;;;;;;36.09;24.49;98613.91;5012058;28;20398;-51
2022/05/15 11:44:09;;;;;;;10.20;4.30;;;;;;;35.38;24.41;98574.38;4994342;28;20121;-50
2022/05/15 11:47:15;;;;;;;11.40;4.15;;;;;;;34.04;26.95;98607.88;5011896;28;20062;-49
2022/05/15 11:50:00;;;;;;;5.68;4.03;;;;;;;33.37;26.95;98608.78;5011910;28;20558;-50
2022/05/15 11:53:03;;;;;;;6.35;3.20;;;;;;;33.34;27.62;98603.25;5012082;28;20026;-50
2022/05/15 11:55:46;;;;;;;6.55;4.13;;;;;;;33.20;27.62;98579.25;5010449;28;20108;-49
2022/05/15 11:58:26;;;;;;;7.35;3.63;;;;;;;32.95;27.95;98598.47;4996940;28;20138;-49